Time;durP1;ratioP1;P1;durP2;ratioP2;P2;SDS_P1;SDS_P2;PMS_P1;PMS_P2;Temp;Humidity;BMP_temperature;BMP_pressure;BME280_temperature;BME280_humidity;BME280_pressure;Samples;Min_cycle;Max_cycle;Signal;HPM_P1;HPM_P2
2022/08/01 00:02:00;;;;;;;3.40;2.13;;;;;;;26.22;46.88;100339.84;5073638;28;20198;-64
2022/08/01 00:04:26;;;;;;;3.93;2.67;;;;;;;26.21;47.72;100339.03;5072911;28;20250;-64
2022/08/01 00:06:51;;;;;;;4.07;2.30;;;;;;;26.22;47.55;100343.56;5072558;28;20940;-64
2022/08/01 00:09:16;;;;;;;6.17;2.43;;;;;;;26.22;47.91;100334.03;5077159;28;20226;-64
2022/08/01 00:11:42;;;;;;;4.23;2.27;;;;;;;26.21;47.37;100341.94;5092115;28;20660;-64
2022/08/01 00:14:09;;;;;;;2.83;2.10;;;;;;;26.21;47.31;100341.94;5091469;28;20711;-64
2022/08/01 00:16:35;;;;;;;2.97;2.17;;;;;;;26.19;47.37;100341.53;5092025;28;20185;-64
2022/08/01 00:19:00;;;;;;;3.23;2.70;;;;;;;26.19;47.47;100341.53;5092409;28;20433;-64
2022/08/01 00:21:25;;;;;;;4.90;2.30;;;;;;;26.18;47.60;100351.47;5092647;28;20629;-64
2022/08/01 00:23:51;;;;;;;3.30;2.50;;;;;;;26.18;47.07;100348.56;5092699;28;20167;-64
2022/08/01 00:26:16;;;;;;;4.90;1.97;;;;;;;26.18;47.92;100351.47;5092627;28;20193;-64
2022/08/01 00:28:42;;;;;;;4.47;2.70;;;;;;;26.17;47.10;100346.94;5092935;28;20634;-64
2022/08/01 00:31:07;;;;;;;3.73;2.37;;;;;;;26.14;47.52;100355.66;5093049;28;20765;-64
2022/08/01 00:33:33;;;;;;;4.13;2.53;;;;;;;26.13;47.30;100354.84;5093259;28;20202;-64
2022/08/01 00:35:58;;;;;;;3.50;1.97;;;;;;;26.14;47.41;100350.69;5093288;28;20626;-64
2022/08/01 00:38:23;;;;;;;3.67;2.50;;;;;;;26.15;47.60;100358.09;5082364;28;20187;-64
2022/08/01 00:40:49;;;;;;;3.57;2.20;;;;;;;26.18;47.49;100359.31;5072711;28;20240;-64
2022/08/01 00:43:14;;;;;;;5.30;2.47;;;;;;;26.15;47.54;100355.22;5072637;28;20201;-64
2022/08/01 00:45:40;;;;;;;2.80;2.10;;;;;;;26.15;47.27;100361.00;5077965;28;20175;-64
2022/08/01 00:48:05;;;;;;;3.27;2.57;;;;;;;26.16;47.85;100353.16;5093056;28;20174;-64
2022/08/01 00:50:31;;;;;;;4.40;2.10;;;;;;;26.16;47.73;100353.16;5092887;28;20178;-64
2022/08/01 00:52:57;;;;;;;3.20;2.13;;;;;;;26.16;47.78;100348.19;5092934;28;20198;-64
2022/08/01 00:55:22;;;;;;;3.73;2.27;;;;;;;26.17;47.71;100349.00;5091636;28;20255;-64
2022/08/01 00:57:48;;;;;;;3.10;2.50;;;;;;;26.15;48.00;100349.41;5090992;28;20186;-64
2022/08/01 01:00:14;;;;;;;3.53;2.53;;;;;;;26.14;48.00;100356.47;5091583;28;20708;-64
2022/08/01 01:02:39;;;;;;;6.43;2.40;;;;;;;26.06;47.54;100352.03;5092712;28;20185;-64
2022/08/01 01:05:05;;;;;;;6.20;2.10;;;;;;;26.07;48.10;100350.78;5092544;28;20174;-64
2022/08/01 01:07:51;;;;;;;3.20;2.67;;;;;;;26.11;47.47;100354.44;5092661;28;20232;-64
2022/08/01 01:10:34;;;;;;;3.20;2.13;;;;;;;26.12;47.92;100361.88;5090785;28;20241;-64
2022/08/01 01:13:06;;;;;;;4.03;2.50;;;;;;;26.10;47.81;100355.69;5091652;28;20487;-64
2022/08/01 01:15:55;;;;;;;3.83;2.53;;;;;;;26.12;47.94;100353.19;5091297;28;20488;-64
2022/08/01 01:18:23;;;;;;;3.77;2.43;;;;;;;26.13;48.37;100359.78;5089802;28;20412;-64
2022/08/01 01:20:57;;;;;;;3.20;2.50;;;;;;;26.14;48.08;100361.44;5089755;28;20415;-64
2022/08/01 01:23:41;;;;;;;3.40;2.67;;;;;;;26.09;47.82;100361.94;5089998;28;20425;-64
2022/08/01 01:26:28;;;;;;;2.67;2.10;;;;;;;26.09;48.24;100354.03;5071543;28;20420;-64
2022/08/01 01:29:15;;;;;;;3.03;2.33;;;;;;;26.11;48.50;100363.13;5071966;28;20467;-64
2022/08/01 01:32:12;;;;;;;4.70;2.10;;;;;;;26.12;48.10;100361.03;5070609;28;20831;-64
2022/08/01 01:34:39;;;;;;;3.60;2.60;;;;;;;26.11;47.97;100360.25;5087525;28;20789;-64
2022/08/01 01:37:07;;;;;;;3.90;2.40;;;;;;;26.12;48.20;100353.19;5069593;28;20438;-64
2022/08/01 01:39:33;;;;;;;2.70;2.17;;;;;;;26.11;48.22;100348.66;5053511;28;20421;-64
2022/08/01 01:41:58;;;;;;;3.23;2.50;;;;;;;26.12;48.12;100358.16;5086438;28;20937;-64
2022/08/01 01:44:24;;;;;;;5.30;2.90;;;;;;;26.13;48.17;100359.78;5070759;28;20183;-64
2022/08/01 01:46:49;;;;;;;4.13;2.87;;;;;;;26.13;48.29;100351.09;5080661;28;20209;-64
2022/08/01 01:49:14;;;;;;;3.40;2.50;;;;;;;26.12;48.78;100356.09;5070659;28;20178;-64
2022/08/01 01:51:40;;;;;;;3.00;2.47;;;;;;;26.11;48.32;100357.34;5052816;28;20179;-64
2022/08/01 01:54:06;;;;;;;2.90;2.33;;;;;;;26.11;48.13;100351.56;5070009;28;20290;-64
2022/08/01 01:56:31;;;;;;;2.83;2.10;;;;;;;26.11;48.50;100360.25;5071238;28;20186;-64
2022/08/01 01:58:59;;;;;;;3.27;2.67;;;;;;;26.11;48.74;100351.56;5070273;28;20194;-64
2022/08/01 02:01:26;;;;;;;4.33;2.40;;;;;;;26.10;48.83;100347.00;5071341;28;20214;-64
2022/08/01 02:03:53;;;;;;;3.30;2.30;;;;;;;26.11;48.49;100348.66;5070263;28;20436;-64
2022/08/01 02:06:19;;;;;;;3.30;2.33;;;;;;;26.11;48.42;100345.78;5071315;28;20410;-64
2022/08/01 02:08:44;;;;;;;3.50;2.37;;;;;;;26.11;48.50;100350.72;5084743;28;20756;-64
2022/08/01 02:11:18;;;;;;;3.47;2.47;;;;;;;26.10;48.78;100355.69;5089155;28;20226;-64
2022/08/01 02:13:45;;;;;;;4.30;2.90;;;;;;;26.10;48.69;100355.69;5091461;28;20783;-64
2022/08/01 02:16:11;;;;;;;5.10;2.70;;;;;;;26.11;48.33;100350.72;5056395;28;20434;-64
2022/08/01 02:18:36;;;;;;;3.10;2.50;;;;;;;26.10;48.52;100344.09;5091493;28;20455;-64
2022/08/01 02:21:03;;;;;;;4.43;2.40;;;;;;;26.10;48.35;100349.91;5090053;28;20444;-64
2022/08/01 02:23:32;;;;;;;3.93;2.50;;;;;;;26.10;48.72;100349.91;5073139;28;20186;-64
2022/08/01 02:25:57;;;;;;;4.23;2.20;;;;;;;26.09;48.72;100353.25;5091064;28;20494;-64
2022/08/01 02:28:29;;;;;;;4.27;2.43;;;;;;;26.10;48.61;100354.88;5091347;28;20445;-64
2022/08/01 02:30:56;;;;;;;4.93;2.53;;;;;;;26.08;48.47;100358.19;5088965;28;20171;-65
2022/08/01 02:33:24;;;;;;;3.40;2.60;;;;;;;26.10;48.18;100357.78;5090149;28;20483;-64
2022/08/01 02:35:51;;;;;;;5.53;2.80;;;;;;;26.08;48.91;100355.31;5086268;28;21011;-64
2022/08/01 02:38:16;;;;;;;3.40;2.57;;;;;;;26.08;48.70;100358.19;5088973;28;20428;-64
2022/08/01 02:40:43;;;;;;;3.70;2.60;;;;;;;26.08;48.40;100357.38;5088801;28;20424;-64
2022/08/01 02:43:09;;;;;;;4.40;2.83;;;;;;;26.07;48.36;100362.34;5072333;28;20176;-64
2022/08/01 02:45:35;;;;;;;4.50;2.73;;;;;;;26.07;48.91;100356.56;5072034;28;20421;-64
2022/08/01 02:48:11;;;;;;;3.50;2.50;;;;;;;26.07;49.22;100356.56;5073103;28;20215;-64
2022/08/01 02:50:37;;;;;;;4.30;3.20;;;;;;;26.06;48.63;100363.59;5072868;28;20227;-64
2022/08/01 02:53:02;;;;;;;4.87;2.50;;;;;;;26.05;48.61;100359.03;5090826;28;20464;-64
2022/08/01 02:55:28;;;;;;;3.60;2.80;;;;;;;26.06;48.71;100360.72;5089790;28;20642;-64
2022/08/01 02:57:53;;;;;;;3.70;2.33;;;;;;;26.06;48.56;100359.88;5090941;28;20541;-64
2022/08/01 03:00:18;;;;;;;4.17;2.70;;;;;;;26.05;49.04;100359.03;5090435;28;20232;-64
2022/08/01 03:02:44;;;;;;;2.87;2.23;;;;;;;26.06;48.81;100362.78;5089590;28;20679;-64
2022/08/01 03:05:11;;;;;;;3.10;2.27;;;;;;;26.06;48.64;100360.72;5090010;28;20628;-64
2022/08/01 03:07:37;;;;;;;2.90;2.40;;;;;;;26.05;48.84;100361.94;5089907;28;20236;-64
2022/08/01 03:10:02;;;;;;;4.30;2.47;;;;;;;26.04;49.12;100362.41;5089548;28;20468;-64
2022/08/01 03:12:29;;;;;;;3.70;2.70;;;;;;;26.04;48.64;100366.09;5088451;28;20202;-64
2022/08/01 03:14:56;;;;;;;5.80;2.73;;;;;;;26.04;49.13;100363.19;5089804;28;20185;-64
2022/08/01 03:17:23;;;;;;;4.07;2.70;;;;;;;26.04;48.90;100371.06;5071858;28;20433;-64
2022/08/01 03:19:49;;;;;;;3.80;2.70;;;;;;;26.03;48.77;100367.34;5071860;28;20412;-64
2022/08/01 03:22:14;;;;;;;4.87;2.93;;;;;;;26.03;48.89;100364.47;5092336;28;20412;-64
2022/08/01 03:24:40;;;;;;;4.73;2.53;;;;;;;26.02;49.04;100365.72;5078798;28;20194;-64
2022/08/01 03:27:06;;;;;;;6.20;2.97;;;;;;;26.01;48.95;100375.66;5083450;28;20201;-64
2022/08/01 03:29:32;;;;;;;4.03;2.37;;;;;;;26.01;48.97;100366.97;5076147;28;20186;-64
2022/08/01 03:31:57;;;;;;;5.40;2.90;;;;;;;26.01;48.71;100363.25;5093117;28;20649;-64
2022/08/01 03:34:22;;;;;;;2.93;2.37;;;;;;;26.01;48.75;100354.56;5094443;28;20214;-64
2022/08/01 03:36:56;;;;;;;3.60;2.40;;;;;;;26.01;49.01;100363.25;5091130;28;20601;-64
2022/08/01 03:39:24;;;;;;;3.80;2.80;;;;;;;26.01;48.68;100358.28;5093240;28;20167;-64
2022/08/01 03:41:54;;;;;;;4.20;2.50;;;;;;;26.01;48.74;100355.41;5092800;28;20534;-64
2022/08/01 03:44:22;;;;;;;3.60;2.53;;;;;;;26.00;48.64;100359.50;5082698;28;20424;-64
2022/08/01 03:46:49;;;;;;;5.20;2.57;;;;;;;25.99;48.56;100357.88;5087218;28;20428;-64
2022/08/01 03:49:18;;;;;;;6.13;2.00;;;;;;;25.98;48.73;100362.03;5093259;28;20405;-64
2022/08/01 03:51:45;;;;;;;3.90;2.70;;;;;;;25.98;48.99;100358.31;5076066;28;20447;-64
2022/08/01 03:54:10;;;;;;;3.10;2.60;;;;;;;25.97;49.10;100360.41;5092692;28;20989;-64
2022/08/01 03:56:35;;;;;;;4.63;2.87;;;;;;;25.97;49.31;100363.28;5092696;28;20420;-64
2022/08/01 03:59:01;;;;;;;3.47;2.70;;;;;;;25.98;48.81;100362.03;5075316;28;20193;-64
2022/08/01 04:01:27;;;;;;;4.10;3.20;;;;;;;25.97;49.25;100362.47;5091539;28;20185;-64
2022/08/01 04:03:52;;;;;;;3.37;2.50;;;;;;;25.97;49.12;100362.47;5092121;28;20583;-64
2022/08/01 04:06:18;;;;;;;4.43;3.00;;;;;;;25.95;48.76;100362.88;5092174;28;20239;-64
2022/08/01 04:08:55;;;;;;;3.90;2.87;;;;;;;25.94;49.10;100363.34;5075181;28;20198;-64
2022/08/01 04:11:21;;;;;;;3.33;2.43;;;;;;;25.94;48.91;100364.13;5092490;28;20276;-64
2022/08/01 04:13:46;;;;;;;3.33;2.80;;;;;;;25.95;49.24;100371.56;5091362;28;20463;-64
2022/08/01 04:16:11;;;;;;;5.03;2.43;;;;;;;25.95;48.62;100365.78;5092836;28;20955;-64
2022/08/01 04:18:37;;;;;;;3.20;2.70;;;;;;;25.94;48.97;100355.47;5093085;28;20178;-64
2022/08/01 04:21:02;;;;;;;4.30;2.93;;;;;;;25.94;48.65;100363.34;5093249;28;20236;-64
2022/08/01 04:23:28;;;;;;;3.50;2.43;;;;;;;25.95;49.08;100367.88;5092953;28;20765;-64
2022/08/01 04:25:53;;;;;;;4.47;2.97;;;;;;;25.95;49.18;100380.25;5074793;28;20187;-64
2022/08/01 04:28:19;;;;;;;3.37;2.80;;;;;;;25.93;48.62;100371.19;5074307;28;20945;-64
2022/08/01 04:30:46;;;;;;;3.60;2.63;;;;;;;25.94;49.08;100372.03;5091604;28;20182;-64
2022/08/01 04:33:15;;;;;;;3.97;2.93;;;;;;;25.93;49.29;100371.19;5092326;28;20592;-64
2022/08/01 04:35:42;;;;;;;3.67;2.60;;;;;;;25.92;49.21;100375.34;5092825;28;20428;-64
2022/08/01 04:38:09;;;;;;;4.73;2.80;;;;;;;25.91;48.87;100385.28;5082845;28;20903;-64
2022/08/01 04:40:35;;;;;;;3.60;2.60;;;;;;;25.89;49.13;100381.94;5064486;28;20455;-64
2022/08/01 04:43:01;;;;;;;3.90;2.60;;;;;;;25.88;48.96;100377.41;5091615;28;20479;-64
2022/08/01 04:45:26;;;;;;;3.60;2.80;;;;;;;25.89;48.96;100390.63;5093112;28;20742;-64
2022/08/01 04:47:51;;;;;;;5.70;3.20;;;;;;;25.89;48.98;100378.25;5091616;28;20166;-64
2022/08/01 04:50:17;;;;;;;4.73;2.47;;;;;;;25.89;48.92;100378.25;5091679;28;20592;-64
2022/08/01 04:52:43;;;;;;;4.90;2.60;;;;;;;25.88;48.91;100380.31;5091657;28;20728;-64
2022/08/01 04:55:08;;;;;;;5.00;3.07;;;;;;;25.89;49.34;100375.34;5092947;28;20633;-64
2022/08/01 04:57:39;;;;;;;3.17;2.50;;;;;;;25.89;49.06;100379.03;5092855;28;20166;-64
2022/08/01 05:00:06;;;;;;;3.73;2.67;;;;;;;25.89;49.03;100384.03;5091851;28;20174;-64
2022/08/01 05:02:31;;;;;;;3.50;2.70;;;;;;;25.89;49.42;100375.34;5092811;28;20485;-64
2022/08/01 05:04:57;;;;;;;4.10;2.67;;;;;;;25.90;49.31;100379.88;5092003;28;20420;-64
2022/08/01 05:07:22;;;;;;;5.23;3.00;;;;;;;25.88;49.06;100374.50;5091355;28;20183;-64
2022/08/01 05:09:47;;;;;;;5.80;3.00;;;;;;;25.86;48.77;100379.91;5091366;28;20237;-64
2022/08/01 05:12:13;;;;;;;7.30;2.53;;;;;;;25.86;49.35;100374.13;5091120;28;20198;-64
2022/08/01 05:14:39;;;;;;;5.70;2.70;;;;;;;25.85;49.21;100386.94;5091452;28;20170;-64
2022/08/01 05:17:06;;;;;;;4.80;3.37;;;;;;;25.84;49.21;100382.41;5091567;28;20259;-64
2022/08/01 05:19:31;;;;;;;5.47;2.37;;;;;;;25.83;49.71;100386.53;5090986;28;20181;-64
2022/08/01 05:21:58;;;;;;;7.43;2.90;;;;;;;25.83;49.30;100392.34;5092295;28;20428;-64
2022/08/01 05:24:23;;;;;;;6.03;3.10;;;;;;;25.83;49.14;100389.44;5091837;28;20182;-64
2022/08/01 05:26:49;;;;;;;6.73;3.47;;;;;;;25.81;49.57;100396.91;5091174;28;20447;-64
2022/08/01 05:29:15;;;;;;;5.10;2.80;;;;;;;25.78;49.50;100403.53;5085868;28;20514;-64
2022/08/01 05:31:40;;;;;;;4.33;2.37;;;;;;;25.78;49.51;100398.59;5073819;28;20257;-64
2022/08/01 05:34:06;;;;;;;7.57;3.30;;;;;;;25.78;49.65;100403.53;5070882;28;20454;-64
2022/08/01 05:36:31;;;;;;;7.70;3.40;;;;;;;25.78;49.41;100403.53;5070909;28;20189;-64
2022/08/01 05:38:57;;;;;;;7.10;3.17;;;;;;;25.78;49.56;100395.69;5071365;28;20358;-64
2022/08/01 05:41:22;;;;;;;3.97;2.87;;;;;;;25.80;49.31;100403.94;5071508;28;20629;-64
2022/08/01 05:43:48;;;;;;;4.70;3.10;;;;;;;25.80;49.63;100398.97;5084465;28;20185;-64
2022/08/01 05:46:13;;;;;;;4.53;2.73;;;;;;;25.80;49.63;100409.72;5081785;28;20183;-64
2022/08/01 05:48:38;;;;;;;4.00;3.20;;;;;;;25.81;49.40;100412.19;5071691;28;20650;-64
2022/08/01 05:51:04;;;;;;;4.30;2.97;;;;;;;25.80;49.25;100404.75;5071735;28;20199;-64
2022/08/01 05:53:29;;;;;;;7.50;2.80;;;;;;;25.80;49.41;100398.97;5081572;28;20209;-64
2022/08/01 05:55:55;;;;;;;4.93;3.07;;;;;;;25.81;49.34;100399.81;5091545;28;20887;-64
2022/08/01 05:58:20;;;;;;;4.27;2.67;;;;;;;25.80;49.70;100395.28;5090413;28;20234;-64
2022/08/01 06:00:46;;;;;;;5.13;3.33;;;;;;;25.78;49.82;100412.22;5091747;28;20227;-64
2022/08/01 06:03:11;;;;;;;3.87;2.80;;;;;;;25.76;49.58;100403.16;5091571;28;20177;-64
2022/08/01 06:05:37;;;;;;;6.00;3.33;;;;;;;25.76;49.97;100406.88;5091681;28;20383;-64
2022/08/01 06:08:03;;;;;;;4.00;3.03;;;;;;;25.75;49.75;100402.31;5073742;28;20273;-64
2022/08/01 06:10:28;;;;;;;4.43;3.73;;;;;;;25.74;49.50;100394.91;5091038;28;20295;-64
2022/08/01 06:12:55;;;;;;;4.33;2.70;;;;;;;25.74;49.52;100394.91;5091441;28;20562;-64
2022/08/01 06:15:20;;;;;;;6.27;2.93;;;;;;;25.75;49.67;100405.22;5091434;28;20569;-64
2022/08/01 06:17:46;;;;;;;9.20;3.40;;;;;;;25.78;49.58;100389.91;5091475;28;20174;-64
2022/08/01 06:20:11;;;;;;;3.90;2.90;;;;;;;25.77;49.83;100396.94;5091291;28;20174;-64
2022/08/01 06:22:37;;;;;;;5.43;3.00;;;;;;;25.77;49.88;100393.22;5091535;28;20170;-64
2022/08/01 06:25:03;;;;;;;5.10;3.30;;;;;;;25.76;49.87;100385.78;5091153;28;20586;-64
2022/08/01 06:27:28;;;;;;;4.20;3.00;;;;;;;25.74;49.76;100400.69;5091430;28;20257;-64
2022/08/01 06:29:53;;;;;;;6.60;2.90;;;;;;;25.73;50.27;100399.03;5091145;28;20420;-64
2022/08/01 06:32:20;;;;;;;7.37;3.70;;;;;;;25.72;50.12;100388.72;5090777;28;20201;-64
2022/08/01 06:34:45;;;;;;;6.93;3.33;;;;;;;25.73;50.19;100398.22;5091281;28;20231;-64
2022/08/01 06:37:13;;;;;;;4.40;2.83;;;;;;;25.73;50.49;100401.09;5079545;28;20421;-64
2022/08/01 06:39:39;;;;;;;6.40;3.70;;;;;;;25.74;50.35;100394.91;5072416;28;20221;-64
2022/08/01 06:42:04;;;;;;;6.53;3.57;;;;;;;25.74;50.82;100400.69;5091227;28;20428;-64
2022/08/01 06:44:29;;;;;;;5.00;2.87;;;;;;;25.73;50.85;100396.16;5090933;28;20174;-64
2022/08/01 06:46:55;;;;;;;6.50;2.70;;;;;;;25.75;51.16;100396.53;5090909;28;20179;-64
2022/08/01 06:49:20;;;;;;;4.13;2.97;;;;;;;25.76;50.49;100406.88;5090887;28;20181;-64
2022/08/01 06:51:46;;;;;;;3.60;2.80;;;;;;;25.75;51.20;100401.50;5090838;28;20181;-64
2022/08/01 06:54:11;;;;;;;6.33;3.07;;;;;;;25.74;51.23;100412.25;5090803;28;20194;-64
2022/08/01 06:56:37;;;;;;;5.43;3.50;;;;;;;25.75;51.78;100408.09;5092513;28;20653;-64
2022/08/01 06:59:02;;;;;;;7.40;3.17;;;;;;;25.74;51.72;100406.47;5094257;28;20208;-64
2022/08/01 07:01:28;;;;;;;8.10;3.40;;;;;;;25.74;52.07;100409.34;5094135;28;20174;-64
2022/08/01 07:03:53;;;;;;;4.30;3.23;;;;;;;25.73;52.08;100404.84;5093736;28;20205;-64
2022/08/01 07:06:19;;;;;;;4.10;2.87;;;;;;;25.73;52.34;100404.00;5093813;28;20178;-64
2022/08/01 07:08:44;;;;;;;4.97;2.43;;;;;;;25.75;52.50;100405.22;5093808;28;20181;-64
2022/08/01 07:11:10;;;;;;;5.13;2.63;;;;;;;25.71;52.77;100401.56;5093801;28;20247;-64
2022/08/01 07:13:35;;;;;;;5.70;2.73;;;;;;;25.72;53.02;100405.25;5094204;28;20717;-64
2022/08/01 07:16:00;;;;;;;6.20;2.60;;;;;;;25.72;52.76;100403.19;5092799;28;20274;-64
2022/08/01 07:18:26;;;;;;;10.47;2.80;;;;;;;25.72;53.30;100399.47;5074433;28;20191;-64
2022/08/01 07:20:51;;;;;;;5.60;3.13;;;;;;;25.67;53.33;100403.66;5074133;28;20635;-64
2022/08/01 07:23:17;;;;;;;6.53;3.13;;;;;;;25.60;54.43;100405.78;5074394;28;20187;-64
2022/08/01 07:25:42;;;;;;;4.90;2.70;;;;;;;25.69;53.04;100401.16;5076170;28;20518;-64
2022/08/01 07:28:08;;;;;;;4.77;2.77;;;;;;;25.70;53.23;100394.09;5072955;28;20279;-64
2022/08/01 07:30:33;;;;;;;5.13;2.60;;;;;;;25.75;53.46;100395.72;5074005;28;20179;-64
2022/08/01 07:32:59;;;;;;;4.10;2.10;;;;;;;25.76;53.28;100400.25;5074052;28;20576;-64
2022/08/01 07:35:24;;;;;;;3.87;2.47;;;;;;;25.76;53.96;100394.47;5074178;28;20187;-64
2022/08/01 07:37:50;;;;;;;5.40;2.63;;;;;;;25.67;54.81;100389.19;5076754;28;20194;-64
2022/08/01 07:40:18;;;;;;;3.97;2.30;;;;;;;25.70;53.61;100394.09;5073937;28;20186;-64
2022/08/01 07:42:44;;;;;;;7.30;2.60;;;;;;;25.75;53.45;100387.84;5088422;28;20189;-64
2022/08/01 07:45:10;;;;;;;3.70;2.90;;;;;;;25.71;54.44;100386.25;5093606;28;20420;-64
2022/08/01 07:47:36;;;;;;;4.27;2.60;;;;;;;25.68;54.14;100390.81;5090136;28;20174;-64
2022/08/01 07:50:03;;;;;;;3.20;2.23;;;;;;;25.73;54.66;100384.59;5073087;28;20448;-65
2022/08/01 07:52:29;;;;;;;5.20;2.63;;;;;;;25.53;55.23;100394.31;5073086;28;20262;-64
2022/08/01 07:54:56;;;;;;;3.37;2.83;;;;;;;25.66;54.41;100381.78;5073067;28;20763;-64
2022/08/01 07:57:21;;;;;;;6.60;2.50;;;;;;;25.73;54.49;100384.59;5073126;28;20452;-64
2022/08/01 07:59:47;;;;;;;6.73;2.73;;;;;;;25.72;55.46;100385.00;5072928;28;21046;-64
2022/08/01 08:02:12;;;;;;;5.40;3.40;;;;;;;25.72;54.70;100388.72;5076393;28;20541;-64
2022/08/01 08:04:38;;;;;;;4.37;2.50;;;;;;;25.78;54.28;100384.13;5093157;28;20186;-64
2022/08/01 08:07:03;;;;;;;5.20;2.80;;;;;;;25.82;53.83;100390.69;5086448;28;20198;-64
2022/08/01 08:09:28;;;;;;;3.33;2.63;;;;;;;25.78;54.10;100381.22;5072154;28;20218;-64
2022/08/01 08:11:54;;;;;;;3.63;2.70;;;;;;;25.63;55.86;100382.63;5093013;28;20198;-64
2022/08/01 08:14:22;;;;;;;3.23;2.47;;;;;;;25.75;55.20;100381.28;5092771;28;20221;-64
2022/08/01 08:16:47;;;;;;;5.00;2.80;;;;;;;25.80;54.33;100375.81;5091269;28;20181;-64
2022/08/01 08:19:13;;;;;;;6.90;2.53;;;;;;;25.80;55.87;100372.94;5092960;28;20428;-64
2022/08/01 08:21:38;;;;;;;3.97;2.00;;;;;;;25.82;54.87;100384.91;5093502;28;20186;-64
2022/08/01 08:24:19;;;;;;;6.37;2.83;;;;;;;25.84;55.85;100376.63;5093418;28;20235;-64
2022/08/01 08:26:49;;;;;;;8.57;2.50;;;;;;;25.85;54.99;100366.69;5091561;28;20281;-64
2022/08/01 08:29:14;;;;;;;3.63;2.60;;;;;;;25.88;55.00;100368.72;5092485;28;20420;-64
2022/08/01 08:31:40;;;;;;;4.20;2.33;;;;;;;25.89;54.64;100372.44;5089867;28;20504;-64
2022/08/01 08:34:05;;;;;;;3.87;2.40;;;;;;;25.88;55.01;100367.88;5081023;28;20231;-64
2022/08/01 08:36:31;;;;;;;3.23;2.00;;;;;;;25.89;55.04;100376.16;5071537;28;20532;-64
2022/08/01 08:38:56;;;;;;;4.10;2.43;;;;;;;25.93;55.26;100379.88;5071039;28;20175;-64
2022/08/01 08:41:22;;;;;;;3.30;2.63;;;;;;;25.92;55.11;100372.44;5087074;28;20202;-64
2022/08/01 08:43:47;;;;;;;5.33;2.70;;;;;;;25.93;54.67;100365.41;5089637;28;20175;-64
2022/08/01 08:46:13;;;;;;;5.40;2.60;;;;;;;25.95;55.24;100365.78;5090951;28;20629;-64
2022/08/01 08:48:39;;;;;;;3.93;2.40;;;;;;;25.93;54.96;100356.72;5089771;28;20662;-64
2022/08/01 08:51:05;;;;;;;5.23;2.63;;;;;;;25.94;54.92;100367.03;5091542;28;20174;-64
2022/08/01 08:53:31;;;;;;;4.30;2.50;;;;;;;25.79;55.08;100356.84;5090847;28;20506;-64
2022/08/01 08:55:56;;;;;;;3.90;2.23;;;;;;;25.88;54.31;100357.16;5092838;28;20194;-64
2022/08/01 08:58:22;;;;;;;3.73;2.50;;;;;;;25.91;55.16;100347.66;5092734;28;20178;-64
2022/08/01 09:00:47;;;;;;;4.90;2.40;;;;;;;25.96;54.94;100349.25;5090943;28;20170;-64
2022/08/01 09:03:13;;;;;;;6.57;2.60;;;;;;;25.99;54.42;100357.88;5091673;28;20167;-64
2022/08/01 09:05:38;;;;;;;4.83;2.30;;;;;;;26.00;54.38;100368.19;5077384;28;20186;-64
2022/08/01 09:08:07;;;;;;;4.90;2.70;;;;;;;26.02;54.20;100362.81;5072673;28;20542;-64
2022/08/01 09:10:32;;;;;;;3.80;2.33;;;;;;;26.01;54.18;100358.28;5081288;28;20237;-64
2022/08/01 09:13:11;;;;;;;3.90;2.30;;;;;;;26.01;54.23;100360.34;5078435;28;20453;-64
2022/08/01 09:15:44;;;;;;;5.27;2.53;;;;;;;26.04;53.78;100359.50;5072314;28;20311;-65
2022/08/01 09:18:28;;;;;;;7.03;2.53;;;;;;;26.05;53.61;100367.72;5075572;28;20516;-64
2022/08/01 09:21:24;;;;;;;4.80;2.20;;;;;;;26.07;53.79;100361.50;5080706;28;20429;-64
2022/08/01 09:23:53;;;;;;;3.53;2.00;;;;;;;26.07;53.77;100362.34;5058642;28;20433;-64
2022/08/01 09:26:20;;;;;;;5.67;2.87;;;;;;;26.08;54.12;100366.03;5069791;28;20796;-64
2022/08/01 09:28:46;;;;;;;4.63;2.87;;;;;;;26.09;54.00;100370.59;5071336;28;20413;-64
2022/08/01 09:31:16;;;;;;;4.10;2.73;;;;;;;26.10;53.81;100372.25;5071944;28;20425;-64
2022/08/01 09:34:00;;;;;;;5.30;2.50;;;;;;;26.15;53.41;100369.69;5070379;28;20457;-64
2022/08/01 09:36:27;;;;;;;3.20;2.40;;;;;;;26.19;54.17;100369.66;5071762;28;20424;-64
2022/08/01 09:38:53;;;;;;;3.93;2.83;;;;;;;26.17;54.37;100372.97;5071993;28;20444;-64
2022/08/01 09:41:28;;;;;;;7.70;3.43;;;;;;;26.17;54.00;100367.19;5076723;28;20461;-64
2022/08/01 09:43:54;;;;;;;6.00;3.70;;;;;;;26.18;53.52;100357.25;5071748;28;20412;-64
2022/08/01 09:46:19;;;;;;;4.53;3.53;;;;;;;26.19;54.21;100364.69;5076026;28;20429;-64
2022/08/01 09:48:58;;;;;;;4.63;3.13;;;;;;;26.21;54.14;100367.16;5073534;28;20332;-64
2022/08/01 09:51:33;;;;;;;4.40;3.30;;;;;;;26.20;53.79;100368.41;5070734;28;20194;-64
2022/08/01 09:53:59;;;;;;;5.47;3.50;;;;;;;26.19;53.96;100369.66;5070827;28;20509;-64
2022/08/01 09:56:25;;;;;;;6.60;3.20;;;;;;;26.18;54.11;100370.88;5070794;28;20456;-64
2022/08/01 09:58:51;;;;;;;4.60;3.40;;;;;;;26.21;53.29;100367.97;5078828;28;20529;-64
2022/08/01 10:01:17;;;;;;;4.60;3.30;;;;;;;26.20;53.39;100360.53;5091204;28;20259;-64
2022/08/01 10:03:42;;;;;;;4.33;3.60;;;;;;;26.21;54.12;100358.47;5073523;28;20413;-64
2022/08/01 10:06:20;;;;;;;5.73;3.50;;;;;;;26.20;54.18;100363.41;5091632;28;20645;-64
2022/08/01 10:08:47;;;;;;;4.80;3.43;;;;;;;26.17;54.38;100364.28;5091640;28;20171;-64
2022/08/01 10:11:12;;;;;;;7.30;3.63;;;;;;;26.15;53.94;100354.41;5091430;28;20480;-64
2022/08/01 10:13:38;;;;;;;4.60;3.33;;;;;;;26.18;53.79;100350.63;5091741;28;20516;-64
2022/08/01 10:16:03;;;;;;;5.13;3.83;;;;;;;26.19;54.39;100350.19;5091481;28;20212;-64
2022/08/01 10:18:31;;;;;;;5.03;3.80;;;;;;;26.19;53.65;100356.00;5090538;28;20210;-64
2022/08/01 10:20:56;;;;;;;5.80;3.90;;;;;;;26.20;53.55;100351.84;5089963;28;20174;-64
2022/08/01 10:23:22;;;;;;;5.30;4.07;;;;;;;26.22;53.75;100340.66;5090119;28;20997;-64
2022/08/01 10:25:47;;;;;;;6.67;4.27;;;;;;;26.25;53.64;100351.34;5091047;28;20634;-64
2022/08/01 10:28:15;;;;;;;4.80;3.90;;;;;;;26.25;53.53;100336.09;5089743;28;20738;-64
2022/08/01 10:30:43;;;;;;;8.37;4.73;;;;;;;26.27;52.81;100333.56;5090460;28;20174;-64
2022/08/01 10:33:09;;;;;;;4.50;3.57;;;;;;;26.26;52.46;100341.44;5091187;28;20468;-64
2022/08/01 10:35:34;;;;;;;8.70;4.03;;;;;;;26.29;52.88;100334.78;5083632;28;20471;-64
2022/08/01 10:38:00;;;;;;;6.70;3.90;;;;;;;26.32;52.43;100328.13;5070953;28;20179;-64
2022/08/01 10:40:25;;;;;;;5.10;4.30;;;;;;;26.29;52.88;100340.56;5079019;28;20644;-64
2022/08/01 10:42:51;;;;;;;4.80;3.63;;;;;;;26.34;52.49;100334.28;5071036;28;20240;-64
2022/08/01 10:45:17;;;;;;;6.83;3.90;;;;;;;26.35;52.83;100335.94;5054084;28;20186;-64
2022/08/01 10:47:51;;;;;;;4.60;3.63;;;;;;;26.37;52.33;100327.66;5069617;28;20460;-64
2022/08/01 10:50:29;;;;;;;5.73;3.80;;;;;;;26.37;52.73;100324.75;5053247;28;20220;-64
2022/08/01 10:53:24;;;;;;;5.13;3.80;;;;;;;26.44;52.40;100332.53;5069193;28;20453;-64
2022/08/01 10:55:56;;;;;;;13.20;4.50;;;;;;;26.41;52.44;100328.44;5052569;28;20459;-64
2022/08/01 10:58:37;;;;;;;6.20;4.67;;;;;;;26.45;52.34;100319.69;5089203;28;20427;-64
2022/08/01 11:01:32;;;;;;;4.17;3.57;;;;;;;26.46;52.36;100327.94;5089647;28;20431;-64
2022/08/01 11:04:06;;;;;;;7.93;4.03;;;;;;;26.43;51.83;100323.00;5061997;28;20429;-64
2022/08/01 11:06:34;;;;;;;5.83;4.03;;;;;;;26.45;51.79;100319.69;5085357;28;20420;-64
2022/08/01 11:09:03;;;;;;;4.80;4.00;;;;;;;26.40;51.79;100312.28;5078719;28;20955;-64
2022/08/01 11:11:29;;;;;;;4.83;3.90;;;;;;;26.37;51.78;100313.19;5090616;28;20456;-64
2022/08/01 11:13:57;;;;;;;6.30;4.00;;;;;;;26.34;52.37;100319.81;5089325;28;20470;-64
2022/08/01 11:16:26;;;;;;;5.50;4.00;;;;;;;26.34;52.42;100311.13;5088439;28;20187;-64
2022/08/01 11:18:52;;;;;;;5.93;3.73;;;;;;;26.34;51.95;100322.72;5089495;28;20461;-64
2022/08/01 11:21:19;;;;;;;6.73;3.80;;;;;;;26.39;52.10;100310.66;5090887;28;20787;-64
2022/08/01 11:23:48;;;;;;;6.57;4.00;;;;;;;26.33;52.12;100311.56;5089698;28;20231;-64
2022/08/01 11:26:14;;;;;;;6.30;4.27;;;;;;;26.35;51.97;100309.88;5083044;28;21088;-64